createdAt,value
2022-08-07T00:01:43.951Z,77.39
2022-08-07T00:04:24.409Z,76.73
2022-08-07T00:06:53.079Z,77.18
2022-08-07T00:09:22.352Z,77.83
2022-08-07T00:11:55.648Z,77.51
2022-08-07T00:14:31.194Z,77.25
2022-08-07T00:17:01.879Z,76.91
2022-08-07T00:20:00.581Z,77.34
2022-08-07T00:23:34.293Z,77.01
2022-08-07T00:26:18.506Z,77.65
2022-08-07T00:28:59.275Z,77.99
2022-08-07T00:31:38.092Z,77.07
2022-08-07T00:34:10.147Z,77.63
2022-08-07T00:36:43.278Z,76.91
2022-08-07T00:39:16.963Z,77.11
2022-08-07T00:42:02.008Z,77.48
2022-08-07T00:44:41.297Z,79.00
2022-08-07T00:48:08.328Z,81.48
2022-08-07T00:50:19.096Z,79.97
2022-08-07T00:52:57.008Z,78.98
2022-08-07T00:56:00.390Z,77.34
2022-08-07T00:58:15.055Z,76.48
2022-08-07T01:00:53.897Z,75.88
2022-08-07T01:03:55.864Z,75.29
2022-08-07T01:06:12.340Z,74.47
2022-08-07T01:08:43.204Z,74.72
2022-08-07T01:12:11.076Z,75.09
2022-08-07T01:14:11.072Z,77.15
2022-08-07T01:16:43.095Z,79.39
2022-08-07T01:19:18.922Z,79.55
2022-08-07T01:21:53.434Z,78.70
2022-08-07T01:24:27.828Z,79.62
2022-08-07T01:27:00.217Z,80.64
2022-08-07T01:32:24.487Z,79.30
2022-08-07T01:34:55.931Z,79.57
2022-08-07T01:37:26.988Z,78.50
2022-08-07T01:40:02.416Z,78.53
2022-08-07T01:42:39.737Z,77.44
2022-08-07T01:45:22.904Z,79.58
2022-08-07T01:48:20.253Z,78.95
2022-08-07T01:52:01.546Z,78.26
2022-08-07T01:54:33.162Z,78.51
2022-08-07T01:57:30.541Z,80.91
2022-08-07T02:00:13.357Z,86.27
2022-08-07T02:03:18.088Z,86.92
2022-08-07T02:06:02.363Z,86.44
2022-08-07T02:08:42.359Z,87.79
2022-08-07T02:11:30.721Z,88.35
2022-08-07T02:14:04.809Z,89.01
2022-08-07T02:16:37.534Z,90.69
2022-08-07T02:20:05.206Z,89.25
2022-08-07T02:22:02.784Z,85.72
2022-08-07T02:24:32.132Z,85.48
2022-08-07T02:27:03.645Z,86.07
2022-08-07T02:29:43.587Z,90.11
2022-08-07T02:32:23.520Z,93.99
2022-08-07T02:34:58.315Z,91.53
2022-08-07T02:37:34.248Z,93.13
2022-08-07T02:40:29.846Z,92.23
2022-08-07T02:42:59.162Z,92.66
2022-08-07T02:45:58.827Z,89.89
2022-08-07T02:48:17.692Z,89.30
2022-08-07T02:50:51.203Z,89.95
2022-08-07T02:53:27.433Z,91.51
2022-08-07T02:56:04.076Z,90.22
2022-08-07T02:58:35.465Z,90.74
2022-08-07T03:01:16.047Z,91.82
2022-08-07T03:03:50.879Z,94.16
2022-08-07T03:09:43.823Z,99.59
2022-08-07T03:12:21.836Z,99.00
2022-08-07T03:16:27.857Z,98.80
2022-08-07T03:18:59.578Z,100.00
2022-08-07T03:21:33.105Z,99.82
2022-08-07T03:24:18.132Z,100.00
2022-08-07T03:26:58.763Z,100.00
2022-08-07T03:29:37.814Z,100.00
2022-08-07T03:32:13.327Z,100.00
2022-08-07T03:35:16.746Z,100.00
2022-08-07T03:37:46.531Z,100.00
2022-08-07T03:40:30.914Z,100.00
2022-08-07T03:43:10.100Z,100.00
2022-08-07T03:45:47.612Z,100.00
2022-08-07T03:49:01.916Z,100.00
2022-08-07T03:51:31.051Z,100.00
2022-08-07T03:54:35.809Z,100.00
2022-08-07T03:58:32.893Z,100.00
2022-08-07T04:00:56.980Z,100.00
2022-08-07T04:03:28.659Z,100.00
2022-08-07T04:06:37.516Z,99.93
2022-08-07T04:09:08.375Z,99.52
2022-08-07T04:12:21.346Z,99.83
2022-08-07T04:14:43.879Z,100.00
2022-08-07T04:17:20.884Z,100.00
2022-08-07T04:19:55.744Z,100.00
2022-08-07T04:22:53.346Z,100.00
2022-08-07T04:25:39.230Z,100.00
2022-08-07T04:28:24.467Z,100.00
2022-08-07T04:30:56.824Z,100.00
2022-08-07T04:33:33.625Z,100.00
2022-08-07T04:36:36.149Z,100.00
2022-08-07T04:39:53.179Z,100.00
2022-08-07T04:42:35.701Z,100.00
2022-08-07T04:45:08.117Z,100.00
2022-08-07T04:48:10.155Z,100.00
2022-08-07T04:50:53.967Z,100.00
2022-08-07T04:54:01.967Z,100.00
2022-08-07T04:58:15.071Z,100.00
2022-08-07T05:00:11.306Z,100.00
2022-08-07T05:02:53.850Z,100.00
2022-08-07T05:06:01.187Z,99.76
2022-08-07T05:09:01.957Z,99.94
2022-08-07T05:11:57.951Z,99.96
2022-08-07T05:14:53.976Z,99.15
2022-08-07T05:17:52.638Z,97.49
2022-08-07T05:21:02.491Z,95.85
2022-08-07T05:23:55.545Z,96.58
2022-08-07T05:26:28.287Z,95.92
2022-08-07T05:29:05.206Z,95.73
2022-08-07T05:31:39.535Z,94.41
2022-08-07T05:34:14.973Z,93.95
2022-08-07T05:38:08.411Z,93.70
2022-08-07T05:40:50.374Z,93.63
2022-08-07T05:43:43.390Z,92.61
2022-08-07T05:46:10.434Z,91.72
2022-08-07T05:48:59.118Z,91.42
2022-08-07T05:51:31.773Z,91.04
2022-08-07T05:54:13.677Z,91.10
2022-08-07T05:56:59.280Z,89.80
2022-08-07T05:59:57.359Z,88.90
2022-08-07T06:02:32.071Z,88.37
2022-08-07T06:05:15.730Z,88.23
2022-08-07T06:08:13.960Z,87.51
2022-08-07T06:10:39.068Z,86.65
2022-08-07T06:13:13.433Z,85.98
2022-08-07T06:15:43.626Z,85.47
2022-08-07T06:18:18.942Z,83.99
2022-08-07T06:20:50.903Z,82.88
2022-08-07T06:24:38.779Z,81.91
2022-08-07T06:29:13.768Z,79.87
2022-08-07T06:31:50.191Z,79.62
2022-08-07T06:34:29.623Z,78.87
2022-08-07T06:37:17.019Z,77.63
2022-08-07T06:40:16.465Z,76.78
2022-08-07T06:42:42.550Z,75.97
2022-08-07T06:45:26.550Z,75.49
2022-08-07T06:47:59.309Z,75.34
2022-08-07T06:50:36.254Z,74.51
2022-08-07T06:53:18.632Z,73.39
2022-08-07T06:56:02.163Z,73.21
2022-08-07T06:58:35.796Z,72.13
2022-08-07T07:01:14.408Z,71.56
2022-08-07T07:17:50.649Z,65.75
2022-08-07T07:20:35.688Z,63.65
2022-08-07T07:24:11.242Z,61.76
2022-08-07T07:26:35.897Z,62.17
2022-08-07T07:29:28.475Z,59.65
2022-08-07T07:31:55.671Z,59.77
2022-08-07T07:34:30.960Z,60.43
2022-08-07T07:37:05.598Z,58.16
2022-08-07T07:39:55.600Z,56.53
2022-08-07T07:42:32.834Z,55.90
2022-08-07T07:45:06.449Z,55.29
2022-08-07T07:47:42.929Z,54.71
2022-08-07T07:50:33.020Z,56.43
2022-08-07T07:53:20.188Z,55.20
2022-08-07T07:56:01.022Z,54.08
2022-08-07T07:58:41.173Z,52.28
2022-08-07T08:02:01.572Z,51.30
2022-08-07T08:04:12.186Z,51.47
2022-08-07T08:06:50.975Z,51.63
2022-08-07T08:09:29.997Z,52.04
2022-08-07T08:12:02.487Z,51.16
2022-08-07T08:14:36.484Z,50.78
2022-08-07T08:17:58.112Z,51.21
2022-08-07T08:20:27.408Z,50.81
2022-08-07T08:23:20.882Z,52.29
2022-08-07T08:26:23.601Z,51.16
2022-08-07T08:28:56.995Z,50.28
2022-08-07T08:32:17.238Z,49.89
2022-08-07T08:34:34.000Z,49.41
2022-08-07T08:37:09.938Z,49.09
2022-08-07T08:39:58.483Z,48.77
2022-08-07T08:42:54.982Z,48.04
2022-08-07T08:45:41.497Z,49.10
2022-08-07T08:48:28.461Z,48.41
2022-08-07T08:51:14.571Z,47.89
2022-08-07T08:54:15.896Z,47.05
2022-08-07T08:56:50.320Z,46.77
2022-08-07T08:59:41.967Z,46.35
2022-08-07T09:02:42.139Z,46.31
2022-08-07T09:05:36.674Z,44.63
2022-08-07T09:08:18.033Z,44.15
2022-08-07T09:11:09.824Z,43.83
2022-08-07T09:14:03.249Z,44.38
2022-08-07T09:16:43.372Z,42.92
2022-08-07T09:19:51.473Z,42.73
2022-08-07T09:24:29.451Z,42.80
2022-08-07T09:25:18.154Z,42.24
2022-08-07T09:29:24.452Z,40.67
2022-08-07T09:31:08.674Z,40.23
2022-08-07T09:33:57.287Z,41.27
2022-08-07T09:36:37.375Z,41.55
2022-08-07T09:39:55.024Z,41.36
2022-08-07T09:42:25.530Z,40.77
2022-08-07T09:47:54.990Z,41.18
2022-08-07T09:48:02.950Z,40.82
2022-08-07T09:51:05.518Z,40.54
2022-08-07T09:54:05.206Z,40.33
2022-08-07T09:57:28.004Z,40.06
2022-08-07T10:00:14.728Z,40.01
2022-08-07T10:04:06.191Z,41.00
2022-08-07T10:06:36.927Z,40.14
2022-08-07T10:09:59.000Z,40.09
2022-08-07T10:12:55.798Z,39.40
2022-08-07T10:16:02.418Z,39.42
2022-08-07T10:18:54.891Z,39.00
2022-08-07T10:22:12.331Z,37.84
2022-08-07T10:25:20.965Z,37.57
2022-08-07T10:28:05.176Z,38.12
2022-08-07T10:30:42.976Z,37.75
2022-08-07T10:34:05.833Z,37.23
2022-08-07T10:36:54.277Z,36.56
2022-08-07T10:39:41.974Z,36.20
2022-08-07T10:42:46.180Z,36.28
2022-08-07T10:45:45.056Z,37.40
2022-08-07T10:48:35.681Z,37.41
2022-08-07T10:51:39.456Z,38.26
2022-08-07T10:54:18.737Z,37.19
2022-08-07T10:56:58.920Z,37.23
2022-08-07T10:59:50.672Z,37.36
2022-08-07T11:02:34.028Z,37.17
2022-08-07T11:05:24.262Z,36.71
2022-08-07T11:08:11.751Z,37.20
2022-08-07T11:11:03.560Z,36.60
2022-08-07T11:14:45.907Z,36.58
2022-08-07T11:16:46.958Z,36.18
2022-08-07T11:19:47.226Z,35.84
2022-08-07T11:22:32.494Z,35.19
2022-08-07T11:25:14.817Z,35.51
2022-08-07T11:28:02.466Z,34.92
2022-08-07T11:30:52.675Z,34.49
2022-08-07T11:33:59.909Z,34.15
2022-08-07T11:36:31.974Z,33.30
2022-08-07T11:39:59.303Z,32.98
2022-08-07T11:42:30.398Z,31.64
2022-08-07T11:45:35.512Z,32.43
2022-08-07T11:49:27.409Z,30.86
2022-08-07T11:51:46.896Z,31.41
2022-08-07T11:54:27.581Z,31.46
2022-08-07T11:57:18.919Z,31.07
2022-08-07T12:00:11.340Z,31.17
2022-08-07T12:03:05.022Z,31.85
2022-08-07T12:06:36.987Z,32.33
2022-08-07T12:09:16.806Z,31.62
2022-08-07T12:12:12.140Z,31.41
2022-08-07T12:15:01.876Z,30.01
2022-08-07T12:17:59.412Z,28.77
2022-08-07T12:20:36.423Z,29.13
2022-08-07T12:24:05.589Z,28.04
2022-08-07T12:26:29.727Z,27.37
2022-08-07T12:29:37.730Z,26.41
2022-08-07T12:32:40.584Z,25.35
2022-08-07T12:35:14.067Z,25.24
2022-08-07T12:38:10.202Z,25.58
2022-08-07T12:40:48.566Z,25.92
2022-08-07T12:44:03.921Z,25.97
2022-08-07T12:46:48.926Z,26.05
2022-08-07T12:49:44.790Z,25.83
2022-08-07T12:52:35.319Z,24.52
2022-08-07T12:55:41.465Z,24.23
2022-08-07T12:58:18.123Z,23.23
2022-08-07T13:01:07.778Z,22.74
2022-08-07T13:03:54.662Z,21.65
2022-08-07T13:07:01.963Z,21.67
2022-08-07T13:10:20.079Z,20.11
2022-08-07T13:13:48.559Z,19.15
2022-08-07T13:16:36.781Z,18.99
2022-08-07T13:19:59.805Z,18.68
2022-08-07T13:22:53.320Z,19.27
2022-08-07T13:25:39.632Z,18.59
2022-08-07T13:28:23.991Z,18.44
2022-08-07T13:31:06.369Z,17.98
2022-08-07T13:34:34.325Z,17.42
2022-08-07T13:37:19.575Z,16.99
2022-08-07T13:40:36.818Z,17.47
2022-08-07T13:43:01.844Z,18.37
2022-08-07T13:46:11.284Z,18.66
2022-08-07T13:48:34.716Z,19.91
2022-08-07T13:51:28.142Z,20.29
2022-08-07T13:54:03.056Z,20.85
2022-08-07T13:56:36.312Z,21.39
2022-08-07T13:59:21.114Z,21.76
2022-08-07T14:02:03.692Z,22.35
2022-08-07T14:04:49.016Z,22.15
2022-08-07T14:07:23.058Z,22.78
2022-08-07T14:10:12.265Z,23.55
2022-08-07T14:12:49.463Z,24.26
2022-08-07T14:15:36.136Z,24.13
2022-08-07T14:18:27.668Z,23.00
2022-08-07T14:22:02.904Z,22.39
2022-08-07T14:24:33.637Z,22.10
2022-08-07T14:27:16.087Z,21.84
2022-08-07T14:30:10.416Z,21.39
2022-08-07T14:32:50.805Z,20.60
2022-08-07T14:35:45.327Z,19.95
2022-08-07T14:38:24.796Z,20.06
2022-08-07T14:41:04.362Z,20.72
2022-08-07T14:43:59.067Z,21.28
2022-08-07T14:46:33.437Z,21.92
2022-08-07T14:49:17.280Z,23.08
2022-08-07T14:52:04.199Z,24.33
2022-08-07T14:54:42.114Z,25.49
2022-08-07T15:00:07.013Z,24.68
2022-08-07T15:02:39.618Z,24.07
2022-08-07T15:05:20.303Z,23.41
2022-08-07T15:07:55.390Z,22.78
2022-08-07T15:10:30.162Z,22.95
2022-08-07T15:13:05.647Z,23.06
2022-08-07T15:15:38.966Z,22.79
2022-08-07T15:18:29.518Z,23.18
2022-08-07T15:25:14.677Z,25.76
2022-08-07T15:27:04.333Z,27.42
2022-08-07T15:30:08.408Z,28.44
2022-08-07T15:32:39.175Z,29.32
2022-08-07T15:36:00.587Z,29.54
2022-08-07T15:38:30.161Z,29.93
2022-08-07T15:42:42.532Z,29.87
2022-08-07T15:44:01.481Z,29.42
2022-08-07T15:46:39.225Z,29.40
2022-08-07T15:49:25.645Z,29.40
2022-08-07T15:52:13.941Z,29.21
2022-08-07T15:54:48.378Z,29.12
2022-08-07T15:57:39.518Z,29.52
2022-08-07T16:00:31.469Z,30.32
2022-08-07T16:03:06.899Z,30.88
2022-08-07T16:05:57.282Z,32.17
2022-08-07T16:08:37.712Z,32.67
2022-08-07T16:11:40.095Z,33.55
2022-08-07T16:14:17.262Z,34.43
2022-08-07T16:18:02.394Z,34.53
2022-08-07T16:21:43.798Z,35.22
2022-08-07T16:23:58.575Z,35.74
2022-08-07T16:26:58.728Z,36.49
2022-08-07T16:30:10.356Z,36.83
2022-08-07T16:34:03.355Z,37.37
2022-08-07T16:37:02.548Z,37.25
2022-08-07T16:40:06.438Z,37.77
2022-08-07T16:42:46.077Z,38.45
2022-08-07T16:46:33.173Z,39.52
2022-08-07T16:50:13.756Z,40.16
2022-08-07T16:52:02.068Z,40.74
2022-08-07T16:54:57.924Z,41.53
2022-08-07T16:58:03.243Z,42.53
2022-08-07T17:01:01.047Z,43.37
2022-08-07T17:03:58.551Z,45.35
2022-08-07T17:06:46.499Z,46.30
2022-08-07T17:10:06.825Z,47.72
2022-08-07T17:12:35.119Z,48.33
2022-08-07T17:15:43.644Z,51.50
2022-08-07T17:18:28.117Z,52.55
2022-08-07T17:20:56.637Z,53.32
2022-08-07T17:23:53.524Z,55.56
2022-08-07T17:26:35.838Z,57.58
2022-08-07T17:30:14.632Z,59.19
2022-08-07T17:34:10.351Z,60.13
2022-08-07T17:36:20.420Z,60.64
2022-08-07T17:39:10.404Z,60.60
2022-08-07T17:42:07.017Z,60.50
2022-08-07T17:44:45.296Z,61.27
2022-08-07T17:47:38.280Z,61.39
2022-08-07T17:50:42.283Z,61.78
2022-08-07T17:54:05.979Z,62.85
2022-08-07T17:57:18.875Z,63.40
2022-08-07T17:59:53.932Z,64.38
2022-08-07T18:02:56.684Z,64.25
2022-08-07T18:06:02.319Z,63.99
2022-08-07T18:09:00.607Z,64.05
2022-08-07T18:12:30.319Z,63.28
2022-08-07T18:15:08.646Z,65.11
2022-08-07T18:18:46.314Z,64.55
2022-08-07T18:21:40.129Z,65.07
2022-08-07T18:24:09.259Z,65.06
2022-08-07T18:26:57.002Z,64.66
2022-08-07T18:30:31.972Z,65.47
2022-08-07T18:33:33.886Z,64.56
2022-08-07T18:36:32.901Z,65.16
2022-08-07T18:40:06.872Z,65.53
2022-08-07T18:42:29.034Z,65.82
2022-08-07T18:45:44.584Z,66.48
2022-08-07T18:49:03.677Z,66.26
2022-08-07T18:52:37.362Z,66.48
2022-08-07T18:54:54.875Z,66.61
2022-08-07T18:57:58.389Z,66.62
2022-08-07T19:02:06.853Z,67.23
2022-08-07T19:04:19.124Z,67.19
2022-08-07T19:07:11.287Z,67.06
2022-08-07T19:09:57.455Z,66.03
2022-08-07T19:12:49.000Z,64.68
2022-08-07T19:16:05.677Z,64.81
2022-08-07T19:18:44.671Z,65.26
2022-08-07T19:21:56.114Z,64.45
2022-08-07T19:24:43.217Z,65.16
2022-08-07T19:28:57.314Z,65.47
2022-08-07T19:31:00.217Z,65.45
2022-08-07T19:33:15.454Z,66.76
2022-08-07T19:35:57.476Z,66.95
2022-08-07T19:38:32.243Z,66.82
2022-08-07T19:41:03.296Z,66.50
2022-08-07T19:46:55.595Z,66.09
2022-08-07T19:49:57.962Z,66.47
2022-08-07T19:54:31.587Z,65.90
2022-08-07T19:56:13.585Z,65.79
2022-08-07T19:59:24.571Z,65.87
2022-08-07T20:02:19.767Z,66.33
2022-08-07T20:05:03.168Z,67.27
2022-08-07T20:08:10.436Z,67.33
2022-08-07T20:11:03.913Z,68.21
2022-08-07T20:13:49.915Z,68.43
2022-08-07T20:16:35.547Z,68.88
2022-08-07T20:21:58.320Z,71.52
2022-08-07T20:24:36.328Z,72.17
2022-08-07T20:27:15.295Z,73.73
2022-08-07T20:30:22.343Z,74.99
2022-08-07T20:32:55.236Z,77.43
2022-08-07T20:38:22.732Z,80.88
2022-08-07T20:41:03.905Z,78.65
2022-08-07T20:43:57.348Z,79.41
2022-08-07T20:46:43.909Z,82.45
2022-08-07T20:50:00.966Z,82.45
2022-08-07T20:52:14.223Z,82.43
2022-08-07T20:54:53.779Z,82.82
2022-08-07T20:57:30.014Z,84.01
2022-08-07T21:00:09.553Z,85.00
2022-08-07T21:03:00.953Z,88.00
2022-08-07T21:05:52.426Z,90.04
2022-08-07T21:09:13.671Z,90.07
2022-08-07T21:12:30.832Z,91.61
2022-08-07T21:15:09.872Z,98.92
2022-08-07T21:18:03.822Z,97.90
2022-08-07T21:20:56.259Z,99.94
2022-08-07T21:23:38.856Z,97.10
2022-08-07T21:26:39.538Z,97.12
2022-08-07T21:29:18.936Z,97.12
2022-08-07T21:32:47.248Z,98.47
2022-08-07T21:35:59.986Z,98.87
2022-08-07T21:38:56.304Z,98.44
2022-08-07T21:41:38.362Z,99.72
2022-08-07T21:44:50.934Z,100.00
2022-08-07T21:47:51.083Z,98.86
2022-08-07T21:50:32.857Z,100.00
2022-08-07T21:53:12.949Z,100.00
2022-08-07T21:55:48.596Z,100.00
2022-08-07T21:58:30.549Z,99.89
2022-08-07T22:01:14.355Z,98.30
2022-08-07T22:04:13.988Z,100.00
2022-08-07T22:07:06.915Z,98.41
2022-08-07T22:09:53.863Z,96.74
2022-08-07T22:12:59.173Z,96.43
2022-08-07T22:16:38.995Z,96.23
2022-08-07T22:18:46.304Z,95.17
2022-08-07T22:22:02.161Z,95.51
2022-08-07T22:25:07.530Z,96.41
2022-08-07T22:28:03.261Z,95.20
2022-08-07T22:30:57.344Z,93.14
2022-08-07T22:33:52.549Z,94.47
2022-08-07T22:36:57.913Z,94.63
2022-08-07T22:39:53.165Z,97.79
2022-08-07T22:42:30.612Z,97.68
2022-08-07T22:46:40.482Z,97.44
2022-08-07T22:49:01.305Z,97.09
2022-08-07T22:52:10.290Z,96.99
2022-08-07T22:55:22.534Z,94.81
2022-08-07T22:58:38.079Z,96.78
2022-08-07T23:01:50.913Z,95.98
2022-08-07T23:04:56.863Z,94.70
2022-08-07T23:07:41.839Z,95.44
2022-08-07T23:10:38.203Z,97.48
2022-08-07T23:14:09.171Z,98.94
2022-08-07T23:16:54.908Z,99.34
2022-08-07T23:20:13.579Z,96.93
2022-08-07T23:23:05.119Z,99.47
2022-08-07T23:26:06.042Z,99.39
2022-08-07T23:28:57.840Z,95.92
2022-08-07T23:34:18.617Z,95.40
2022-08-07T23:35:10.548Z,95.63
2022-08-07T23:38:19.066Z,97.61
2022-08-07T23:41:24.470Z,96.35
2022-08-07T23:44:53.973Z,97.01
2022-08-07T23:47:42.392Z,93.71
2022-08-07T23:50:29.758Z,92.90
2022-08-07T23:53:49.461Z,93.33
2022-08-07T23:56:35.106Z,92.49
